sensor_id;sensor_type;location;lat;lon;timestamp;P1;durP1;ratioP1;P2;durP2;ratioP2
77838;SDS011;67034;43.226;27.932;2023-08-06T00:00:47;11.32;;;10.02;;
77838;SDS011;67034;43.226;27.932;2023-08-06T00:03:13;14.93;;;10.65;;
77838;SDS011;67034;43.226;27.932;2023-08-06T00:05:41;13.05;;;9.88;;
77838;SDS011;67034;43.226;27.932;2023-08-06T00:08:08;18.02;;;10.88;;
77838;SDS011;67034;43.226;27.932;2023-08-06T00:10:34;15.02;;;10.98;;
77838;SDS011;67034;43.226;27.932;2023-08-06T00:13:00;15.93;;;10.48;;
77838;SDS011;67034;43.226;27.932;2023-08-06T00:15:25;14.98;;;10.27;;
77838;SDS011;67034;43.226;27.932;2023-08-06T00:17:51;14.30;;;9.93;;
77838;SDS011;67034;43.226;27.932;2023-08-06T00:20:17;17.67;;;11.05;;
77838;SDS011;67034;43.226;27.932;2023-08-06T00:22:43;13.30;;;10.25;;
77838;SDS011;67034;43.226;27.932;2023-08-06T00:25:10;16.15;;;10.68;;
77838;SDS011;67034;43.226;27.932;2023-08-06T00:27:35;15.98;;;10.45;;
77838;SDS011;67034;43.226;27.932;2023-08-06T00:30:01;10.68;;;9.52;;
77838;SDS011;67034;43.226;27.932;2023-08-06T00:32:27;17.95;;;11.88;;
77838;SDS011;67034;43.226;27.932;2023-08-06T00:34:53;15.57;;;10.98;;
77838;SDS011;67034;43.226;27.932;2023-08-06T00:37:19;15.10;;;11.60;;
77838;SDS011;67034;43.226;27.932;2023-08-06T00:39:45;13.70;;;10.57;;
77838;SDS011;67034;43.226;27.932;2023-08-06T00:42:12;16.95;;;11.13;;
77838;SDS011;67034;43.226;27.932;2023-08-06T00:44:38;13.00;;;10.60;;
77838;SDS011;67034;43.226;27.932;2023-08-06T00:47:04;16.95;;;11.23;;
77838;SDS011;67034;43.226;27.932;2023-08-06T00:49:31;13.68;;;11.00;;
77838;SDS011;67034;43.226;27.932;2023-08-06T00:51:56;13.77;;;10.45;;
77838;SDS011;67034;43.226;27.932;2023-08-06T00:54:23;11.68;;;10.13;;
77838;SDS011;67034;43.226;27.932;2023-08-06T00:56:50;14.93;;;10.73;;
77838;SDS011;67034;43.226;27.932;2023-08-06T00:59:17;13.32;;;10.55;;
77838;SDS011;67034;43.226;27.932;2023-08-06T01:01:43;13.02;;;10.43;;
77838;SDS011;67034;43.226;27.932;2023-08-06T01:04:09;17.08;;;10.95;;
77838;SDS011;67034;43.226;27.932;2023-08-06T01:06:39;12.40;;;10.35;;
77838;SDS011;67034;43.226;27.932;2023-08-06T01:09:12;14.20;;;10.07;;
77838;SDS011;67034;43.226;27.932;2023-08-06T01:11:50;16.05;;;11.27;;
77838;SDS011;67034;43.226;27.932;2023-08-06T01:16:54;14.50;;;10.20;;
77838;SDS011;67034;43.226;27.932;2023-08-06T01:19:21;14.43;;;10.18;;
77838;SDS011;67034;43.226;27.932;2023-08-06T01:21:48;13.85;;;10.77;;
77838;SDS011;67034;43.226;27.932;2023-08-06T01:24:14;12.90;;;10.10;;
77838;SDS011;67034;43.226;27.932;2023-08-06T01:26:42;12.50;;;9.93;;
77838;SDS011;67034;43.226;27.932;2023-08-06T01:29:11;16.13;;;10.32;;
77838;SDS011;67034;43.226;27.932;2023-08-06T01:31:43;12.07;;;10.45;;
77838;SDS011;67034;43.226;27.932;2023-08-06T01:34:10;13.90;;;11.13;;
77838;SDS011;67034;43.226;27.932;2023-08-06T01:36:42;14.82;;;10.57;;
77838;SDS011;67034;43.226;27.932;2023-08-06T01:39:09;14.57;;;10.68;;
77838;SDS011;67034;43.226;27.932;2023-08-06T01:41:35;14.88;;;11.02;;
77838;SDS011;67034;43.226;27.932;2023-08-06T01:44:01;13.85;;;10.73;;
77838;SDS011;67034;43.226;27.932;2023-08-06T01:46:26;12.82;;;10.48;;
77838;SDS011;67034;43.226;27.932;2023-08-06T01:48:52;16.35;;;11.50;;
77838;SDS011;67034;43.226;27.932;2023-08-06T01:51:18;16.75;;;10.60;;
77838;SDS011;67034;43.226;27.932;2023-08-06T01:53:43;13.90;;;10.45;;
77838;SDS011;67034;43.226;27.932;2023-08-06T01:56:10;13.80;;;10.73;;
77838;SDS011;67034;43.226;27.932;2023-08-06T01:58:36;14.02;;;11.23;;
77838;SDS011;67034;43.226;27.932;2023-08-06T02:01:02;13.77;;;9.65;;
77838;SDS011;67034;43.226;27.932;2023-08-06T02:03:28;11.75;;;10.02;;
77838;SDS011;67034;43.226;27.932;2023-08-06T02:05:53;13.00;;;9.52;;
77838;SDS011;67034;43.226;27.932;2023-08-06T02:08:19;15.82;;;10.52;;
77838;SDS011;67034;43.226;27.932;2023-08-06T02:10:45;13.02;;;10.45;;
77838;SDS011;67034;43.226;27.932;2023-08-06T02:13:12;12.23;;;10.32;;
77838;SDS011;67034;43.226;27.932;2023-08-06T02:15:41;15.32;;;11.57;;
77838;SDS011;67034;43.226;27.932;2023-08-06T02:18:07;14.52;;;11.13;;
77838;SDS011;67034;43.226;27.932;2023-08-06T02:20:33;15.68;;;10.18;;
77838;SDS011;67034;43.226;27.932;2023-08-06T02:22:59;18.65;;;11.35;;
77838;SDS011;67034;43.226;27.932;2023-08-06T02:25:24;14.75;;;10.43;;
77838;SDS011;67034;43.226;27.932;2023-08-06T02:27:50;14.82;;;11.57;;
77838;SDS011;67034;43.226;27.932;2023-08-06T02:30:17;13.88;;;10.32;;
77838;SDS011;67034;43.226;27.932;2023-08-06T02:32:43;14.70;;;11.15;;
77838;SDS011;67034;43.226;27.932;2023-08-06T02:35:09;11.88;;;10.70;;
77838;SDS011;67034;43.226;27.932;2023-08-06T02:37:35;18.90;;;11.25;;
77838;SDS011;67034;43.226;27.932;2023-08-06T02:40:01;13.00;;;11.02;;
77838;SDS011;67034;43.226;27.932;2023-08-06T02:42:27;12.32;;;11.02;;
77838;SDS011;67034;43.226;27.932;2023-08-06T02:44:53;17.15;;;10.93;;
77838;SDS011;67034;43.226;27.932;2023-08-06T02:47:23;18.27;;;12.02;;
77838;SDS011;67034;43.226;27.932;2023-08-06T02:49:49;14.35;;;11.32;;
77838;SDS011;67034;43.226;27.932;2023-08-06T02:52:14;14.27;;;11.07;;
77838;SDS011;67034;43.226;27.932;2023-08-06T02:54:40;14.85;;;10.88;;
77838;SDS011;67034;43.226;27.932;2023-08-06T02:57:06;14.40;;;12.90;;
77838;SDS011;67034;43.226;27.932;2023-08-06T02:59:31;12.60;;;10.85;;
77838;SDS011;67034;43.226;27.932;2023-08-06T03:01:57;13.35;;;11.52;;
77838;SDS011;67034;43.226;27.932;2023-08-06T03:04:24;15.85;;;11.73;;
77838;SDS011;67034;43.226;27.932;2023-08-06T03:06:50;14.30;;;10.88;;
77838;SDS011;67034;43.226;27.932;2023-08-06T03:09:16;17.88;;;11.15;;
77838;SDS011;67034;43.226;27.932;2023-08-06T03:11:42;14.68;;;11.55;;
77838;SDS011;67034;43.226;27.932;2023-08-06T03:14:08;14.95;;;11.52;;
77838;SDS011;67034;43.226;27.932;2023-08-06T03:16:34;15.57;;;11.75;;
77838;SDS011;67034;43.226;27.932;2023-08-06T03:18:59;14.35;;;11.88;;
77838;SDS011;67034;43.226;27.932;2023-08-06T03:21:27;18.17;;;10.80;;
77838;SDS011;67034;43.226;27.932;2023-08-06T03:23:53;15.75;;;10.60;;
77838;SDS011;67034;43.226;27.932;2023-08-06T03:26:18;14.73;;;10.35;;
77838;SDS011;67034;43.226;27.932;2023-08-06T03:28:44;14.20;;;10.10;;
77838;SDS011;67034;43.226;27.932;2023-08-06T03:31:10;15.75;;;11.00;;
77838;SDS011;67034;43.226;27.932;2023-08-06T03:33:36;14.35;;;10.30;;
77838;SDS011;67034;43.226;27.932;2023-08-06T03:36:02;11.88;;;10.20;;
77838;SDS011;67034;43.226;27.932;2023-08-06T03:38:29;13.60;;;10.23;;
77838;SDS011;67034;43.226;27.932;2023-08-06T03:40:55;13.13;;;10.27;;
77838;SDS011;67034;43.226;27.932;2023-08-06T03:43:20;12.45;;;9.68;;
77838;SDS011;67034;43.226;27.932;2023-08-06T03:45:46;15.73;;;10.75;;
77838;SDS011;67034;43.226;27.932;2023-08-06T03:48:12;13.85;;;11.30;;
77838;SDS011;67034;43.226;27.932;2023-08-06T03:50:37;15.52;;;10.70;;
77838;SDS011;67034;43.226;27.932;2023-08-06T03:53:04;16.63;;;11.13;;
77838;SDS011;67034;43.226;27.932;2023-08-06T03:55:31;21.02;;;12.23;;
77838;SDS011;67034;43.226;27.932;2023-08-06T03:57:56;17.00;;;12.20;;
77838;SDS011;67034;43.226;27.932;2023-08-06T04:00:22;17.63;;;11.65;;
77838;SDS011;67034;43.226;27.932;2023-08-06T04:02:51;16.13;;;11.43;;
77838;SDS011;67034;43.226;27.932;2023-08-06T04:05:16;16.13;;;12.32;;
77838;SDS011;67034;43.226;27.932;2023-08-06T04:07:42;15.10;;;11.90;;
77838;SDS011;67034;43.226;27.932;2023-08-06T04:10:08;18.63;;;12.52;;
77838;SDS011;67034;43.226;27.932;2023-08-06T04:12:36;16.42;;;11.63;;
77838;SDS011;67034;43.226;27.932;2023-08-06T04:15:03;13.00;;;11.65;;
77838;SDS011;67034;43.226;27.932;2023-08-06T04:17:30;13.77;;;11.23;;
77838;SDS011;67034;43.226;27.932;2023-08-06T04:19:55;15.18;;;10.95;;
77838;SDS011;67034;43.226;27.932;2023-08-06T04:22:24;17.08;;;12.15;;
77838;SDS011;67034;43.226;27.932;2023-08-06T04:24:50;16.80;;;12.07;;
77838;SDS011;67034;43.226;27.932;2023-08-06T04:27:16;17.17;;;12.27;;
77838;SDS011;67034;43.226;27.932;2023-08-06T04:29:44;20.88;;;12.05;;
77838;SDS011;67034;43.226;27.932;2023-08-06T04:32:10;12.50;;;10.23;;
77838;SDS011;67034;43.226;27.932;2023-08-06T04:34:36;16.48;;;10.07;;
77838;SDS011;67034;43.226;27.932;2023-08-06T04:37:02;15.70;;;11.13;;
77838;SDS011;67034;43.226;27.932;2023-08-06T04:39:29;15.45;;;10.80;;
77838;SDS011;67034;43.226;27.932;2023-08-06T04:41:55;14.57;;;11.15;;
77838;SDS011;67034;43.226;27.932;2023-08-06T04:44:22;16.42;;;10.63;;
77838;SDS011;67034;43.226;27.932;2023-08-06T04:46:49;12.70;;;10.35;;
77838;SDS011;67034;43.226;27.932;2023-08-06T04:49:15;14.43;;;9.98;;
77838;SDS011;67034;43.226;27.932;2023-08-06T04:51:41;17.48;;;10.25;;
77838;SDS011;67034;43.226;27.932;2023-08-06T04:54:06;12.80;;;9.45;;
77838;SDS011;67034;43.226;27.932;2023-08-06T04:56:32;16.40;;;9.75;;
77838;SDS011;67034;43.226;27.932;2023-08-06T04:58:58;12.32;;;9.10;;
77838;SDS011;67034;43.226;27.932;2023-08-06T05:01:24;12.82;;;9.80;;
77838;SDS011;67034;43.226;27.932;2023-08-06T05:03:51;18.48;;;10.02;;
77838;SDS011;67034;43.226;27.932;2023-08-06T05:06:17;11.38;;;9.23;;
77838;SDS011;67034;43.226;27.932;2023-08-06T05:08:42;20.17;;;12.02;;
77838;SDS011;67034;43.226;27.932;2023-08-06T05:11:08;24.02;;;11.18;;
77838;SDS011;67034;43.226;27.932;2023-08-06T05:13:34;12.05;;;9.80;;
77838;SDS011;67034;43.226;27.932;2023-08-06T05:16:00;14.77;;;9.00;;
77838;SDS011;67034;43.226;27.932;2023-08-06T05:18:26;12.65;;;10.45;;
77838;SDS011;67034;43.226;27.932;2023-08-06T05:20:53;10.15;;;9.15;;
77838;SDS011;67034;43.226;27.932;2023-08-06T05:23:19;16.27;;;10.13;;
77838;SDS011;67034;43.226;27.932;2023-08-06T05:25:44;18.25;;;10.45;;
77838;SDS011;67034;43.226;27.932;2023-08-06T05:28:10;14.50;;;10.23;;
77838;SDS011;67034;43.226;27.932;2023-08-06T05:30:38;14.63;;;10.60;;
77838;SDS011;67034;43.226;27.932;2023-08-06T05:33:04;28.88;;;12.90;;
77838;SDS011;67034;43.226;27.932;2023-08-06T05:35:30;13.38;;;9.38;;
77838;SDS011;67034;43.226;27.932;2023-08-06T05:37:57;15.40;;;10.63;;
77838;SDS011;67034;43.226;27.932;2023-08-06T05:40:23;29.23;;;11.02;;
77838;SDS011;67034;43.226;27.932;2023-08-06T05:42:50;24.08;;;11.27;;
77838;SDS011;67034;43.226;27.932;2023-08-06T05:45:16;23.33;;;11.48;;
77838;SDS011;67034;43.226;27.932;2023-08-06T05:47:42;15.18;;;10.38;;
77838;SDS011;67034;43.226;27.932;2023-08-06T05:50:08;19.33;;;9.23;;
77838;SDS011;67034;43.226;27.932;2023-08-06T05:52:34;27.88;;;10.70;;
77838;SDS011;67034;43.226;27.932;2023-08-06T05:55:02;26.83;;;10.82;;
77838;SDS011;67034;43.226;27.932;2023-08-06T05:57:28;14.38;;;9.15;;
77838;SDS011;67034;43.226;27.932;2023-08-06T05:59:54;14.38;;;9.82;;
77838;SDS011;67034;43.226;27.932;2023-08-06T06:02:19;15.43;;;8.57;;
77838;SDS011;67034;43.226;27.932;2023-08-06T06:04:45;11.35;;;8.32;;
77838;SDS011;67034;43.226;27.932;2023-08-06T06:07:11;13.68;;;8.88;;
77838;SDS011;67034;43.226;27.932;2023-08-06T06:09:40;13.90;;;10.00;;
77838;SDS011;67034;43.226;27.932;2023-08-06T06:12:07;11.35;;;8.13;;
77838;SDS011;67034;43.226;27.932;2023-08-06T06:14:33;11.60;;;9.10;;
77838;SDS011;67034;43.226;27.932;2023-08-06T06:16:59;14.57;;;8.98;;
77838;SDS011;67034;43.226;27.932;2023-08-06T06:19:25;11.90;;;7.38;;
77838;SDS011;67034;43.226;27.932;2023-08-06T06:21:51;11.60;;;8.15;;
77838;SDS011;67034;43.226;27.932;2023-08-06T06:24:17;11.95;;;9.00;;
77838;SDS011;67034;43.226;27.932;2023-08-06T06:26:42;11.35;;;7.75;;
77838;SDS011;67034;43.226;27.932;2023-08-06T06:29:09;8.23;;;7.28;;
77838;SDS011;67034;43.226;27.932;2023-08-06T06:31:35;17.90;;;9.07;;
77838;SDS011;67034;43.226;27.932;2023-08-06T06:34:01;18.83;;;9.40;;
77838;SDS011;67034;43.226;27.932;2023-08-06T06:36:27;19.50;;;10.35;;
77838;SDS011;67034;43.226;27.932;2023-08-06T06:38:52;16.90;;;10.00;;
77838;SDS011;67034;43.226;27.932;2023-08-06T06:41:18;15.88;;;9.10;;
77838;SDS011;67034;43.226;27.932;2023-08-06T06:43:44;14.05;;;8.82;;
77838;SDS011;67034;43.226;27.932;2023-08-06T06:46:11;14.65;;;8.20;;
77838;SDS011;67034;43.226;27.932;2023-08-06T06:48:36;12.07;;;8.45;;
77838;SDS011;67034;43.226;27.932;2023-08-06T06:51:02;15.98;;;9.25;;
77838;SDS011;67034;43.226;27.932;2023-08-06T06:53:28;12.20;;;8.95;;
77838;SDS011;67034;43.226;27.932;2023-08-06T06:55:54;13.90;;;8.43;;
77838;SDS011;67034;43.226;27.932;2023-08-06T06:58:19;11.80;;;8.23;;
77838;SDS011;67034;43.226;27.932;2023-08-06T07:00:46;20.10;;;9.10;;
77838;SDS011;67034;43.226;27.932;2023-08-06T07:03:13;19.60;;;8.77;;
77838;SDS011;67034;43.226;27.932;2023-08-06T07:05:38;14.85;;;8.93;;
77838;SDS011;67034;43.226;27.932;2023-08-06T07:08:04;23.85;;;9.48;;
77838;SDS011;67034;43.226;27.932;2023-08-06T07:10:30;16.52;;;9.70;;
77838;SDS011;67034;43.226;27.932;2023-08-06T07:12:56;22.98;;;9.20;;
77838;SDS011;67034;43.226;27.932;2023-08-06T07:15:21;18.67;;;9.10;;
77838;SDS011;67034;43.226;27.932;2023-08-06T07:17:47;13.65;;;7.72;;
77838;SDS011;67034;43.226;27.932;2023-08-06T07:20:14;17.88;;;9.25;;
77838;SDS011;67034;43.226;27.932;2023-08-06T07:22:40;10.43;;;7.63;;
77838;SDS011;67034;43.226;27.932;2023-08-06T07:25:06;22.90;;;9.73;;
77838;SDS011;67034;43.226;27.932;2023-08-06T07:27:33;15.38;;;8.00;;
77838;SDS011;67034;43.226;27.932;2023-08-06T07:29:58;17.85;;;9.35;;
77838;SDS011;67034;43.226;27.932;2023-08-06T07:32:24;10.82;;;8.27;;
77838;SDS011;67034;43.226;27.932;2023-08-06T07:34:50;11.65;;;8.80;;
77838;SDS011;67034;43.226;27.932;2023-08-06T07:37:23;16.83;;;9.30;;
77838;SDS011;67034;43.226;27.932;2023-08-06T07:39:48;10.60;;;8.50;;
77838;SDS011;67034;43.226;27.932;2023-08-06T07:42:14;23.05;;;9.55;;
77838;SDS011;67034;43.226;27.932;2023-08-06T07:44:40;10.60;;;7.72;;
77838;SDS011;67034;43.226;27.932;2023-08-06T07:47:05;16.27;;;8.18;;
77838;SDS011;67034;43.226;27.932;2023-08-06T07:49:31;11.05;;;8.43;;
77838;SDS011;67034;43.226;27.932;2023-08-06T07:51:57;16.05;;;8.85;;
77838;SDS011;67034;43.226;27.932;2023-08-06T07:54:24;10.27;;;8.07;;
77838;SDS011;67034;43.226;27.932;2023-08-06T07:56:49;14.43;;;9.20;;
77838;SDS011;67034;43.226;27.932;2023-08-06T07:59:15;12.88;;;8.20;;
77838;SDS011;67034;43.226;27.932;2023-08-06T08:01:41;16.65;;;9.07;;
77838;SDS011;67034;43.226;27.932;2023-08-06T08:04:07;11.95;;;8.18;;
77838;SDS011;67034;43.226;27.932;2023-08-06T08:06:33;22.10;;;9.05;;
77838;SDS011;67034;43.226;27.932;2023-08-06T08:08:59;17.10;;;8.52;;
77838;SDS011;67034;43.226;27.932;2023-08-06T08:11:26;11.90;;;9.10;;
77838;SDS011;67034;43.226;27.932;2023-08-06T08:13:52;11.75;;;7.93;;
77838;SDS011;67034;43.226;27.932;2023-08-06T08:16:18;11.82;;;7.85;;
77838;SDS011;67034;43.226;27.932;2023-08-06T08:18:43;13.77;;;8.25;;
77838;SDS011;67034;43.226;27.932;2023-08-06T08:21:09;21.08;;;7.60;;
77838;SDS011;67034;43.226;27.932;2023-08-06T08:23:35;8.88;;;7.82;;
77838;SDS011;67034;43.226;27.932;2023-08-06T08:26:00;12.48;;;6.95;;
77838;SDS011;67034;43.226;27.932;2023-08-06T08:28:28;10.27;;;7.22;;
77838;SDS011;67034;43.226;27.932;2023-08-06T08:30:54;10.52;;;7.60;;
77838;SDS011;67034;43.226;27.932;2023-08-06T08:33:20;14.95;;;7.20;;
77838;SDS011;67034;43.226;27.932;2023-08-06T08:35:47;9.52;;;7.22;;
77838;SDS011;67034;43.226;27.932;2023-08-06T08:38:13;8.40;;;7.32;;
77838;SDS011;67034;43.226;27.932;2023-08-06T08:40:40;9.30;;;7.40;;
77838;SDS011;67034;43.226;27.932;2023-08-06T08:43:11;11.32;;;7.45;;
77838;SDS011;67034;43.226;27.932;2023-08-06T08:45:40;21.27;;;8.43;;
77838;SDS011;67034;43.226;27.932;2023-08-06T08:48:07;15.10;;;7.25;;
77838;SDS011;67034;43.226;27.932;2023-08-06T08:50:37;13.13;;;7.20;;
77838;SDS011;67034;43.226;27.932;2023-08-06T08:53:03;10.45;;;6.72;;
77838;SDS011;67034;43.226;27.932;2023-08-06T08:55:30;13.93;;;6.88;;
77838;SDS011;67034;43.226;27.932;2023-08-06T08:57:57;12.27;;;7.00;;
77838;SDS011;67034;43.226;27.932;2023-08-06T09:00:23;26.08;;;8.88;;
77838;SDS011;67034;43.226;27.932;2023-08-06T09:02:51;18.20;;;7.97;;
77838;SDS011;67034;43.226;27.932;2023-08-06T09:05:17;11.13;;;7.55;;
77838;SDS011;67034;43.226;27.932;2023-08-06T09:07:46;10.15;;;6.90;;
77838;SDS011;67034;43.226;27.932;2023-08-06T09:10:14;15.10;;;7.28;;
77838;SDS011;67034;43.226;27.932;2023-08-06T09:12:42;11.90;;;7.55;;
77838;SDS011;67034;43.226;27.932;2023-08-06T09:15:09;12.95;;;6.65;;
77838;SDS011;67034;43.226;27.932;2023-08-06T09:17:35;14.23;;;7.35;;
77838;SDS011;67034;43.226;27.932;2023-08-06T09:20:10;14.57;;;7.88;;
77838;SDS011;67034;43.226;27.932;2023-08-06T09:22:36;8.38;;;6.82;;
77838;SDS011;67034;43.226;27.932;2023-08-06T09:25:02;10.93;;;6.95;;
77838;SDS011;67034;43.226;27.932;2023-08-06T09:27:29;9.63;;;7.28;;
77838;SDS011;67034;43.226;27.932;2023-08-06T09:29:55;8.68;;;6.63;;
77838;SDS011;67034;43.226;27.932;2023-08-06T09:32:21;8.63;;;7.57;;
77838;SDS011;67034;43.226;27.932;2023-08-06T09:34:47;12.52;;;6.65;;
77838;SDS011;67034;43.226;27.932;2023-08-06T09:37:21;10.35;;;6.50;;
77838;SDS011;67034;43.226;27.932;2023-08-06T09:39:47;11.25;;;6.50;;
77838;SDS011;67034;43.226;27.932;2023-08-06T09:42:14;16.58;;;7.75;;
77838;SDS011;67034;43.226;27.932;2023-08-06T09:44:41;12.73;;;6.70;;
77838;SDS011;67034;43.226;27.932;2023-08-06T09:47:07;11.60;;;7.68;;
77838;SDS011;67034;43.226;27.932;2023-08-06T09:49:42;8.90;;;7.05;;
77838;SDS011;67034;43.226;27.932;2023-08-06T09:52:09;7.85;;;6.95;;
77838;SDS011;67034;43.226;27.932;2023-08-06T09:54:38;37.08;;;9.90;;
77838;SDS011;67034;43.226;27.932;2023-08-06T09:57:04;7.70;;;6.70;;
77838;SDS011;67034;43.226;27.932;2023-08-06T09:59:30;17.45;;;7.70;;
77838;SDS011;67034;43.226;27.932;2023-08-06T10:01:57;14.27;;;7.40;;
77838;SDS011;67034;43.226;27.932;2023-08-06T10:04:24;9.73;;;6.80;;
77838;SDS011;67034;43.226;27.932;2023-08-06T10:06:49;16.27;;;6.70;;
77838;SDS011;67034;43.226;27.932;2023-08-06T10:09:15;11.13;;;6.55;;
77838;SDS011;67034;43.226;27.932;2023-08-06T10:11:43;13.77;;;6.93;;
77838;SDS011;67034;43.226;27.932;2023-08-06T10:14:13;8.15;;;6.47;;
77838;SDS011;67034;43.226;27.932;2023-08-06T10:16:44;8.65;;;7.22;;
77838;SDS011;67034;43.226;27.932;2023-08-06T10:19:10;12.18;;;6.90;;
77838;SDS011;67034;43.226;27.932;2023-08-06T10:21:37;9.82;;;6.45;;
77838;SDS011;67034;43.226;27.932;2023-08-06T10:24:03;9.07;;;6.90;;
77838;SDS011;67034;43.226;27.932;2023-08-06T10:26:34;18.80;;;8.05;;
77838;SDS011;67034;43.226;27.932;2023-08-06T10:29:01;11.00;;;6.13;;
77838;SDS011;67034;43.226;27.932;2023-08-06T10:34:20;16.23;;;7.78;;
77838;SDS011;67034;43.226;27.932;2023-08-06T10:36:46;11.90;;;6.90;;
77838;SDS011;67034;43.226;27.932;2023-08-06T10:39:13;14.52;;;7.20;;
77838;SDS011;67034;43.226;27.932;2023-08-06T10:41:39;9.50;;;5.75;;
77838;SDS011;67034;43.226;27.932;2023-08-06T10:44:09;12.98;;;7.38;;
77838;SDS011;67034;43.226;27.932;2023-08-06T10:46:36;33.85;;;8.95;;
77838;SDS011;67034;43.226;27.932;2023-08-06T10:49:02;29.70;;;8.55;;
77838;SDS011;67034;43.226;27.932;2023-08-06T10:51:29;45.20;;;9.63;;
77838;SDS011;67034;43.226;27.932;2023-08-06T10:53:55;17.77;;;7.03;;
77838;SDS011;67034;43.226;27.932;2023-08-06T10:56:21;19.67;;;8.07;;
77838;SDS011;67034;43.226;27.932;2023-08-06T10:58:48;15.00;;;8.40;;
77838;SDS011;67034;43.226;27.932;2023-08-06T11:01:16;15.50;;;8.63;;
77838;SDS011;67034;43.226;27.932;2023-08-06T11:03:42;16.30;;;7.97;;
77838;SDS011;67034;43.226;27.932;2023-08-06T11:06:09;15.60;;;7.88;;
77838;SDS011;67034;43.226;27.932;2023-08-06T11:08:36;24.33;;;8.35;;
77838;SDS011;67034;43.226;27.932;2023-08-06T11:11:08;20.08;;;8.30;;
77838;SDS011;67034;43.226;27.932;2023-08-06T11:13:36;9.55;;;6.93;;
77838;SDS011;67034;43.226;27.932;2023-08-06T11:16:02;13.40;;;7.60;;
77838;SDS011;67034;43.226;27.932;2023-08-06T11:18:30;11.07;;;7.05;;
77838;SDS011;67034;43.226;27.932;2023-08-06T11:20:58;10.48;;;6.50;;
77838;SDS011;67034;43.226;27.932;2023-08-06T11:23:25;11.32;;;5.80;;
77838;SDS011;67034;43.226;27.932;2023-08-06T11:25:51;9.93;;;6.75;;
77838;SDS011;67034;43.226;27.932;2023-08-06T11:28:19;27.08;;;7.68;;
77838;SDS011;67034;43.226;27.932;2023-08-06T11:30:46;8.43;;;6.70;;
77838;SDS011;67034;43.226;27.932;2023-08-06T11:33:12;8.60;;;7.18;;
77838;SDS011;67034;43.226;27.932;2023-08-06T11:35:39;8.80;;;6.38;;
77838;SDS011;67034;43.226;27.932;2023-08-06T11:38:05;9.05;;;6.03;;
77838;SDS011;67034;43.226;27.932;2023-08-06T11:40:31;6.85;;;5.45;;
77838;SDS011;67034;43.226;27.932;2023-08-06T11:42:58;8.77;;;6.10;;
77838;SDS011;67034;43.226;27.932;2023-08-06T11:45:24;19.92;;;7.40;;
77838;SDS011;67034;43.226;27.932;2023-08-06T11:47:50;16.33;;;7.75;;
77838;SDS011;67034;43.226;27.932;2023-08-06T11:50:24;15.82;;;7.47;;
77838;SDS011;67034;43.226;27.932;2023-08-06T11:52:54;10.52;;;6.30;;
77838;SDS011;67034;43.226;27.932;2023-08-06T11:55:22;14.27;;;7.30;;
77838;SDS011;67034;43.226;27.932;2023-08-06T11:57:49;11.70;;;7.20;;
77838;SDS011;67034;43.226;27.932;2023-08-06T12:00:14;11.48;;;7.07;;
77838;SDS011;67034;43.226;27.932;2023-08-06T12:02:44;17.08;;;9.95;;
77838;SDS011;67034;43.226;27.932;2023-08-06T12:05:11;21.27;;;9.00;;
77838;SDS011;67034;43.226;27.932;2023-08-06T12:07:39;18.55;;;9.68;;
77838;SDS011;67034;43.226;27.932;2023-08-06T12:10:07;13.40;;;8.50;;
77838;SDS011;67034;43.226;27.932;2023-08-06T12:12:33;9.07;;;5.10;;
77838;SDS011;67034;43.226;27.932;2023-08-06T12:14:59;9.50;;;4.57;;
77838;SDS011;67034;43.226;27.932;2023-08-06T12:17:25;18.65;;;6.10;;
77838;SDS011;67034;43.226;27.932;2023-08-06T12:19:51;12.38;;;3.83;;
77838;SDS011;67034;43.226;27.932;2023-08-06T12:22:17;5.80;;;3.10;;
77838;SDS011;67034;43.226;27.932;2023-08-06T12:24:44;6.95;;;3.85;;
77838;SDS011;67034;43.226;27.932;2023-08-06T12:27:11;7.45;;;3.55;;
77838;SDS011;67034;43.226;27.932;2023-08-06T12:29:39;6.32;;;3.42;;
77838;SDS011;67034;43.226;27.932;2023-08-06T12:32:07;5.72;;;3.33;;
77838;SDS011;67034;43.226;27.932;2023-08-06T12:34:32;5.22;;;3.53;;
77838;SDS011;67034;43.226;27.932;2023-08-06T12:36:58;5.93;;;4.07;;
77838;SDS011;67034;43.226;27.932;2023-08-06T12:39:24;6.10;;;3.75;;
77838;SDS011;67034;43.226;27.932;2023-08-06T12:41:49;8.75;;;4.50;;
77838;SDS011;67034;43.226;27.932;2023-08-06T12:44:17;8.48;;;3.97;;
77838;SDS011;67034;43.226;27.932;2023-08-06T12:46:42;6.93;;;4.50;;
77838;SDS011;67034;43.226;27.932;2023-08-06T12:49:08;14.60;;;4.43;;
77838;SDS011;67034;43.226;27.932;2023-08-06T12:51:34;4.70;;;3.60;;
77838;SDS011;67034;43.226;27.932;2023-08-06T12:53:59;5.68;;;4.13;;
77838;SDS011;67034;43.226;27.932;2023-08-06T12:56:25;6.93;;;4.28;;
77838;SDS011;67034;43.226;27.932;2023-08-06T12:58:50;6.15;;;4.13;;
77838;SDS011;67034;43.226;27.932;2023-08-06T13:01:18;5.88;;;4.50;;
77838;SDS011;67034;43.226;27.932;2023-08-06T13:03:43;8.73;;;4.75;;
77838;SDS011;67034;43.226;27.932;2023-08-06T13:06:09;7.40;;;5.20;;
77838;SDS011;67034;43.226;27.932;2023-08-06T13:08:35;8.23;;;4.32;;
77838;SDS011;67034;43.226;27.932;2023-08-06T13:11:01;4.72;;;4.03;;
77838;SDS011;67034;43.226;27.932;2023-08-06T13:13:27;7.32;;;4.40;;
77838;SDS011;67034;43.226;27.932;2023-08-06T13:15:52;4.88;;;4.00;;
77838;SDS011;67034;43.226;27.932;2023-08-06T13:18:19;12.43;;;4.47;;
77838;SDS011;67034;43.226;27.932;2023-08-06T13:20:45;13.57;;;4.30;;
77838;SDS011;67034;43.226;27.932;2023-08-06T13:23:12;7.63;;;4.10;;
77838;SDS011;67034;43.226;27.932;2023-08-06T13:25:40;5.05;;;4.22;;
77838;SDS011;67034;43.226;27.932;2023-08-06T13:28:06;6.03;;;3.70;;
77838;SDS011;67034;43.226;27.932;2023-08-06T13:30:32;5.70;;;4.07;;
77838;SDS011;67034;43.226;27.932;2023-08-06T13:32:59;8.38;;;4.50;;
77838;SDS011;67034;43.226;27.932;2023-08-06T13:35:27;6.32;;;3.80;;
77838;SDS011;67034;43.226;27.932;2023-08-06T13:37:53;5.45;;;4.07;;
77838;SDS011;67034;43.226;27.932;2023-08-06T13:40:19;6.50;;;3.40;;
77838;SDS011;67034;43.226;27.932;2023-08-06T13:42:45;4.65;;;3.60;;
77838;SDS011;67034;43.226;27.932;2023-08-06T13:45:11;4.45;;;3.75;;
77838;SDS011;67034;43.226;27.932;2023-08-06T13:47:36;5.22;;;3.58;;
77838;SDS011;67034;43.226;27.932;2023-08-06T13:50:02;5.40;;;3.58;;
77838;SDS011;67034;43.226;27.932;2023-08-06T13:52:30;6.25;;;3.20;;
77838;SDS011;67034;43.226;27.932;2023-08-06T13:54:56;7.22;;;3.20;;
77838;SDS011;67034;43.226;27.932;2023-08-06T13:57:22;7.82;;;3.53;;
77838;SDS011;67034;43.226;27.932;2023-08-06T13:59:47;7.07;;;3.83;;
77838;SDS011;67034;43.226;27.932;2023-08-06T14:02:13;5.07;;;3.22;;
77838;SDS011;67034;43.226;27.932;2023-08-06T14:04:39;4.90;;;3.83;;
77838;SDS011;67034;43.226;27.932;2023-08-06T14:07:05;5.93;;;3.60;;
77838;SDS011;67034;43.226;27.932;2023-08-06T14:09:32;6.88;;;3.58;;
77838;SDS011;67034;43.226;27.932;2023-08-06T14:11:59;6.65;;;3.30;;
77838;SDS011;67034;43.226;27.932;2023-08-06T14:14:25;4.72;;;3.83;;
77838;SDS011;67034;43.226;27.932;2023-08-06T14:16:52;6.32;;;3.53;;
77838;SDS011;67034;43.226;27.932;2023-08-06T14:19:18;5.32;;;3.90;;